sensor_id;sensor_type;location;lat;lon;timestamp;P1;durP1;ratioP1;P2;durP2;ratioP2
20832;SDS011;56075;51.264;7.150;2022-12-29T00:02:04;1.60;;;1.20;;
20832;SDS011;56075;51.264;7.150;2022-12-29T00:04:35;2.55;;;1.30;;
20832;SDS011;56075;51.264;7.150;2022-12-29T00:07:06;2.67;;;1.40;;
20832;SDS011;56075;51.264;7.150;2022-12-29T00:09:37;2.00;;;1.10;;
20832;SDS011;56075;51.264;7.150;2022-12-29T00:12:08;1.63;;;1.07;;
20832;SDS011;56075;51.264;7.150;2022-12-29T00:14:40;1.83;;;1.13;;
20832;SDS011;56075;51.264;7.150;2022-12-29T00:17:29;3.33;;;1.13;;
20832;SDS011;56075;51.264;7.150;2022-12-29T00:20:01;2.10;;;1.30;;
20832;SDS011;56075;51.264;7.150;2022-12-29T00:22:51;3.10;;;1.27;;
20832;SDS011;56075;51.264;7.150;2022-12-29T00:25:40;2.20;;;1.37;;
20832;SDS011;56075;51.264;7.150;2022-12-29T00:28:31;1.73;;;1.10;;
20832;SDS011;56075;51.264;7.150;2022-12-29T00:31:21;2.92;;;1.10;;
20832;SDS011;56075;51.264;7.150;2022-12-29T00:34:11;2.23;;;1.30;;
20832;SDS011;56075;51.264;7.150;2022-12-29T00:37:01;2.07;;;1.23;;
20832;SDS011;56075;51.264;7.150;2022-12-29T00:39:32;3.15;;;1.20;;
20832;SDS011;56075;51.264;7.150;2022-12-29T00:42:22;1.60;;;0.93;;
20832;SDS011;56075;51.264;7.150;2022-12-29T00:45:12;2.87;;;1.13;;
20832;SDS011;56075;51.264;7.150;2022-12-29T00:47:43;1.90;;;0.97;;
20832;SDS011;56075;51.264;7.150;2022-12-29T00:50:14;2.65;;;1.05;;
20832;SDS011;56075;51.264;7.150;2022-12-29T00:52:45;2.30;;;0.90;;
20832;SDS011;56075;51.264;7.150;2022-12-29T00:55:16;1.80;;;1.03;;
20832;SDS011;56075;51.264;7.150;2022-12-29T00:57:47;1.55;;;0.70;;
20832;SDS011;56075;51.264;7.150;2022-12-29T01:00:18;1.25;;;0.80;;
20832;SDS011;56075;51.264;7.150;2022-12-29T01:02:49;3.03;;;1.05;;
20832;SDS011;56075;51.264;7.150;2022-12-29T01:05:21;1.65;;;0.77;;
20832;SDS011;56075;51.264;7.150;2022-12-29T01:07:52;1.17;;;0.70;;
20832;SDS011;56075;51.264;7.150;2022-12-29T01:10:23;3.03;;;0.70;;
20832;SDS011;56075;51.264;7.150;2022-12-29T01:12:54;2.28;;;0.70;;
20832;SDS011;56075;51.264;7.150;2022-12-29T01:15:25;0.98;;;0.50;;
20832;SDS011;56075;51.264;7.150;2022-12-29T01:17:57;1.07;;;0.60;;
20832;SDS011;56075;51.264;7.150;2022-12-29T01:20:28;0.65;;;0.52;;
20832;SDS011;56075;51.264;7.150;2022-12-29T01:22:59;0.80;;;0.50;;
20832;SDS011;56075;51.264;7.150;2022-12-29T01:25:30;0.70;;;0.50;;
20832;SDS011;56075;51.264;7.150;2022-12-29T01:28:03;0.82;;;0.45;;
20832;SDS011;56075;51.264;7.150;2022-12-29T01:30:34;0.70;;;0.40;;
20832;SDS011;56075;51.264;7.150;2022-12-29T01:33:06;0.63;;;0.50;;
20832;SDS011;56075;51.264;7.150;2022-12-29T01:35:37;0.43;;;0.40;;
20832;SDS011;56075;51.264;7.150;2022-12-29T01:38:08;0.90;;;0.47;;
20832;SDS011;56075;51.264;7.150;2022-12-29T01:40:43;0.60;;;0.40;;
20832;SDS011;56075;51.264;7.150;2022-12-29T01:43:16;0.30;;;0.30;;
20832;SDS011;56075;51.264;7.150;2022-12-29T01:45:48;0.57;;;0.35;;
20832;SDS011;56075;51.264;7.150;2022-12-29T01:48:22;1.05;;;0.40;;
20832;SDS011;56075;51.264;7.150;2022-12-29T01:50:53;0.40;;;0.40;;
20832;SDS011;56075;51.264;7.150;2022-12-29T01:53:26;0.40;;;0.40;;
20832;SDS011;56075;51.264;7.150;2022-12-29T01:56:01;1.95;;;0.40;;
20832;SDS011;56075;51.264;7.150;2022-12-29T01:58:37;0.30;;;0.30;;
20832;SDS011;56075;51.264;7.150;2022-12-29T02:01:13;1.05;;;0.63;;
20832;SDS011;56075;51.264;7.150;2022-12-29T02:03:45;2.55;;;0.35;;
20832;SDS011;56075;51.264;7.150;2022-12-29T02:06:21;0.30;;;0.20;;
20832;SDS011;56075;51.264;7.150;2022-12-29T02:08:55;0.20;;;0.20;;
20832;SDS011;56075;51.264;7.150;2022-12-29T02:11:27;0.30;;;0.30;;
20832;SDS011;56075;51.264;7.150;2022-12-29T02:14:00;0.30;;;0.28;;
20832;SDS011;56075;51.264;7.150;2022-12-29T02:16:35;0.35;;;0.30;;
20832;SDS011;56075;51.264;7.150;2022-12-29T02:22:42;0.20;;;0.20;;
20832;SDS011;56075;51.264;7.150;2022-12-29T02:28:45;0.32;;;0.30;;
20832;SDS011;56075;51.264;7.150;2022-12-29T02:34:43;0.70;;;0.28;;
20832;SDS011;56075;51.264;7.150;2022-12-29T02:45:59;0.50;;;0.30;;
20832;SDS011;56075;51.264;7.150;2022-12-29T02:48:42;2.78;;;0.50;;
20832;SDS011;56075;51.264;7.150;2022-12-29T02:51:36;1.33;;;0.32;;
20832;SDS011;56075;51.264;7.150;2022-12-29T02:54:09;1.38;;;0.40;;
20832;SDS011;56075;51.264;7.150;2022-12-29T02:56:59;1.63;;;0.32;;
20832;SDS011;56075;51.264;7.150;2022-12-29T02:59:32;0.70;;;0.40;;
20832;SDS011;56075;51.264;7.150;2022-12-29T03:05:04;0.73;;;0.40;;
20832;SDS011;56075;51.264;7.150;2022-12-29T03:11:05;1.85;;;0.40;;
20832;SDS011;56075;51.264;7.150;2022-12-29T03:14:02;0.73;;;0.30;;
20832;SDS011;56075;51.264;7.150;2022-12-29T03:17:24;1.13;;;0.30;;
20832;SDS011;56075;51.264;7.150;2022-12-29T03:20:10;2.20;;;0.40;;
20832;SDS011;56075;51.264;7.150;2022-12-29T03:22:51;1.15;;;0.47;;
20832;SDS011;56075;51.264;7.150;2022-12-29T03:25:32;1.35;;;0.40;;
20832;SDS011;56075;51.264;7.150;2022-12-29T03:28:17;0.43;;;0.35;;
20832;SDS011;56075;51.264;7.150;2022-12-29T03:30:52;0.88;;;0.50;;
20832;SDS011;56075;51.264;7.150;2022-12-29T03:33:25;0.85;;;0.40;;
20832;SDS011;56075;51.264;7.150;2022-12-29T03:36:05;0.75;;;0.45;;
20832;SDS011;56075;51.264;7.150;2022-12-29T03:38:43;0.80;;;0.50;;
20832;SDS011;56075;51.264;7.150;2022-12-29T03:41:18;1.50;;;0.40;;
20832;SDS011;56075;51.264;7.150;2022-12-29T03:43:54;1.08;;;0.40;;
20832;SDS011;56075;51.264;7.150;2022-12-29T03:46:25;1.25;;;0.40;;
20832;SDS011;56075;51.264;7.150;2022-12-29T03:48:56;0.65;;;0.43;;
20832;SDS011;56075;51.264;7.150;2022-12-29T03:51:28;1.15;;;0.40;;
20832;SDS011;56075;51.264;7.150;2022-12-29T03:53:59;0.50;;;0.30;;
20832;SDS011;56075;51.264;7.150;2022-12-29T03:56:31;0.40;;;0.30;;
20832;SDS011;56075;51.264;7.150;2022-12-29T03:59:02;0.32;;;0.30;;
20832;SDS011;56075;51.264;7.150;2022-12-29T04:01:42;1.23;;;0.40;;
20832;SDS011;56075;51.264;7.150;2022-12-29T04:04:13;0.95;;;0.30;;
20832;SDS011;56075;51.264;7.150;2022-12-29T04:06:45;1.25;;;0.40;;
20832;SDS011;56075;51.264;7.150;2022-12-29T04:09:17;0.40;;;0.40;;
20832;SDS011;56075;51.264;7.150;2022-12-29T04:11:50;0.80;;;0.32;;
20832;SDS011;56075;51.264;7.150;2022-12-29T04:14:22;0.38;;;0.30;;
20832;SDS011;56075;51.264;7.150;2022-12-29T04:16:54;0.63;;;0.45;;
20832;SDS011;56075;51.264;7.150;2022-12-29T04:19:25;1.13;;;0.40;;
20832;SDS011;56075;51.264;7.150;2022-12-29T04:21:56;0.30;;;0.30;;
20832;SDS011;56075;51.264;7.150;2022-12-29T04:24:28;0.40;;;0.20;;
20832;SDS011;56075;51.264;7.150;2022-12-29T04:26:59;0.63;;;0.30;;
20832;SDS011;56075;51.264;7.150;2022-12-29T04:29:56;0.60;;;0.30;;
20832;SDS011;56075;51.264;7.150;2022-12-29T04:32:56;0.50;;;0.30;;
20832;SDS011;56075;51.264;7.150;2022-12-29T04:35:27;0.90;;;0.30;;
20832;SDS011;56075;51.264;7.150;2022-12-29T04:37:59;0.90;;;0.30;;
20832;SDS011;56075;51.264;7.150;2022-12-29T04:40:30;0.30;;;0.30;;
20832;SDS011;56075;51.264;7.150;2022-12-29T04:43:01;0.60;;;0.30;;
20832;SDS011;56075;51.264;7.150;2022-12-29T04:45:32;1.13;;;0.30;;
20832;SDS011;56075;51.264;7.150;2022-12-29T04:48:15;1.25;;;0.40;;
20832;SDS011;56075;51.264;7.150;2022-12-29T04:51:02;0.75;;;0.40;;
20832;SDS011;56075;51.264;7.150;2022-12-29T04:53:39;0.50;;;0.30;;
20832;SDS011;56075;51.264;7.150;2022-12-29T04:56:12;0.60;;;0.30;;
20832;SDS011;56075;51.264;7.150;2022-12-29T04:58:44;0.88;;;0.30;;
20832;SDS011;56075;51.264;7.150;2022-12-29T05:01:15;0.50;;;0.30;;
20832;SDS011;56075;51.264;7.150;2022-12-29T05:03:46;0.85;;;0.30;;
20832;SDS011;56075;51.264;7.150;2022-12-29T05:06:17;0.63;;;0.35;;
20832;SDS011;56075;51.264;7.150;2022-12-29T05:08:49;1.13;;;0.30;;
20832;SDS011;56075;51.264;7.150;2022-12-29T05:11:20;0.90;;;0.40;;
20832;SDS011;56075;51.264;7.150;2022-12-29T05:13:54;0.52;;;0.40;;
20832;SDS011;56075;51.264;7.150;2022-12-29T05:16:25;0.22;;;0.22;;
20832;SDS011;56075;51.264;7.150;2022-12-29T05:18:57;0.57;;;0.40;;
20832;SDS011;56075;51.264;7.150;2022-12-29T05:21:28;0.43;;;0.30;;
20832;SDS011;56075;51.264;7.150;2022-12-29T05:23:59;0.60;;;0.28;;
20832;SDS011;56075;51.264;7.150;2022-12-29T05:26:31;2.20;;;0.40;;
20832;SDS011;56075;51.264;7.150;2022-12-29T05:29:14;1.33;;;0.30;;
20832;SDS011;56075;51.264;7.150;2022-12-29T05:31:46;1.15;;;0.30;;
20832;SDS011;56075;51.264;7.150;2022-12-29T05:34:17;0.32;;;0.25;;
20832;SDS011;56075;51.264;7.150;2022-12-29T05:36:48;0.40;;;0.32;;
20832;SDS011;56075;51.264;7.150;2022-12-29T05:39:20;3.08;;;1.00;;
20832;SDS011;56075;51.264;7.150;2022-12-29T05:41:57;2.42;;;0.40;;
20832;SDS011;56075;51.264;7.150;2022-12-29T05:44:51;3.47;;;1.00;;
20832;SDS011;56075;51.264;7.150;2022-12-29T05:47:33;2.70;;;0.77;;
20832;SDS011;56075;51.264;7.150;2022-12-29T05:50:13;1.42;;;0.50;;
20832;SDS011;56075;51.264;7.150;2022-12-29T05:53:03;0.40;;;0.30;;
20832;SDS011;56075;51.264;7.150;2022-12-29T05:55:34;1.65;;;0.50;;
20832;SDS011;56075;51.264;7.150;2022-12-29T05:58:05;1.90;;;0.30;;
20832;SDS011;56075;51.264;7.150;2022-12-29T06:00:36;1.35;;;0.50;;
20832;SDS011;56075;51.264;7.150;2022-12-29T06:03:08;1.88;;;0.40;;
20832;SDS011;56075;51.264;7.150;2022-12-29T06:05:39;1.02;;;0.40;;
20832;SDS011;56075;51.264;7.150;2022-12-29T06:08:10;0.80;;;0.30;;
20832;SDS011;56075;51.264;7.150;2022-12-29T06:10:42;2.60;;;0.50;;
20832;SDS011;56075;51.264;7.150;2022-12-29T06:13:13;1.77;;;0.40;;
20832;SDS011;56075;51.264;7.150;2022-12-29T06:15:48;2.03;;;0.60;;
20832;SDS011;56075;51.264;7.150;2022-12-29T06:18:20;3.38;;;0.45;;
20832;SDS011;56075;51.264;7.150;2022-12-29T06:20:52;1.48;;;0.32;;
20832;SDS011;56075;51.264;7.150;2022-12-29T06:23:23;1.58;;;0.60;;
20832;SDS011;56075;51.264;7.150;2022-12-29T06:25:54;1.38;;;0.32;;
20832;SDS011;56075;51.264;7.150;2022-12-29T06:28:26;0.98;;;0.40;;
20832;SDS011;56075;51.264;7.150;2022-12-29T06:30:57;3.75;;;0.57;;
20832;SDS011;56075;51.264;7.150;2022-12-29T06:33:29;1.65;;;0.40;;
20832;SDS011;56075;51.264;7.150;2022-12-29T06:36:01;1.10;;;0.30;;
20832;SDS011;56075;51.264;7.150;2022-12-29T06:38:32;1.65;;;0.45;;
20832;SDS011;56075;51.264;7.150;2022-12-29T06:41:03;0.30;;;0.30;;
20832;SDS011;56075;51.264;7.150;2022-12-29T06:43:35;3.00;;;0.40;;
20832;SDS011;56075;51.264;7.150;2022-12-29T06:46:12;0.93;;;0.30;;
20832;SDS011;56075;51.264;7.150;2022-12-29T06:48:44;1.55;;;0.35;;
20832;SDS011;56075;51.264;7.150;2022-12-29T06:51:15;1.83;;;0.35;;
20832;SDS011;56075;51.264;7.150;2022-12-29T06:53:46;0.70;;;0.40;;
20832;SDS011;56075;51.264;7.150;2022-12-29T06:56:17;2.70;;;0.40;;
20832;SDS011;56075;51.264;7.150;2022-12-29T06:58:48;0.43;;;0.30;;
20832;SDS011;56075;51.264;7.150;2022-12-29T07:01:20;1.58;;;0.45;;
20832;SDS011;56075;51.264;7.150;2022-12-29T07:03:51;0.68;;;0.30;;
20832;SDS011;56075;51.264;7.150;2022-12-29T07:06:22;1.38;;;0.40;;
20832;SDS011;56075;51.264;7.150;2022-12-29T07:08:53;2.40;;;0.50;;
20832;SDS011;56075;51.264;7.150;2022-12-29T07:11:25;4.13;;;0.40;;
20832;SDS011;56075;51.264;7.150;2022-12-29T07:13:56;1.70;;;0.40;;
20832;SDS011;56075;51.264;7.150;2022-12-29T07:16:27;3.03;;;0.35;;
20832;SDS011;56075;51.264;7.150;2022-12-29T07:18:59;2.15;;;0.50;;
20832;SDS011;56075;51.264;7.150;2022-12-29T07:21:31;2.55;;;0.40;;
20832;SDS011;56075;51.264;7.150;2022-12-29T07:24:02;1.80;;;0.40;;
20832;SDS011;56075;51.264;7.150;2022-12-29T07:26:33;2.83;;;0.55;;
20832;SDS011;56075;51.264;7.150;2022-12-29T07:29:04;2.28;;;0.65;;
20832;SDS011;56075;51.264;7.150;2022-12-29T07:31:35;0.82;;;0.50;;
20832;SDS011;56075;51.264;7.150;2022-12-29T07:34:07;4.80;;;0.60;;
20832;SDS011;56075;51.264;7.150;2022-12-29T07:36:39;4.85;;;0.63;;
20832;SDS011;56075;51.264;7.150;2022-12-29T07:39:10;3.47;;;0.60;;
20832;SDS011;56075;51.264;7.150;2022-12-29T07:41:42;1.90;;;0.38;;
20832;SDS011;56075;51.264;7.150;2022-12-29T07:44:20;2.88;;;0.40;;
20832;SDS011;56075;51.264;7.150;2022-12-29T07:47:03;2.95;;;0.50;;
20832;SDS011;56075;51.264;7.150;2022-12-29T07:49:34;1.48;;;0.57;;
20832;SDS011;56075;51.264;7.150;2022-12-29T07:52:05;2.47;;;0.50;;
20832;SDS011;56075;51.264;7.150;2022-12-29T07:54:36;3.85;;;0.60;;
20832;SDS011;56075;51.264;7.150;2022-12-29T07:57:07;2.75;;;0.50;;
20832;SDS011;56075;51.264;7.150;2022-12-29T07:59:39;3.33;;;0.57;;
20832;SDS011;56075;51.264;7.150;2022-12-29T08:02:10;2.25;;;0.50;;
20832;SDS011;56075;51.264;7.150;2022-12-29T08:04:44;4.78;;;0.63;;
20832;SDS011;56075;51.264;7.150;2022-12-29T08:07:15;1.75;;;0.40;;
20832;SDS011;56075;51.264;7.150;2022-12-29T08:09:46;3.30;;;0.70;;
20832;SDS011;56075;51.264;7.150;2022-12-29T08:12:17;2.65;;;0.57;;
20832;SDS011;56075;51.264;7.150;2022-12-29T08:14:49;2.60;;;0.63;;
20832;SDS011;56075;51.264;7.150;2022-12-29T08:17:20;3.33;;;0.60;;
20832;SDS011;56075;51.264;7.150;2022-12-29T08:19:51;1.98;;;0.60;;
20832;SDS011;56075;51.264;7.150;2022-12-29T08:22:23;3.38;;;0.50;;
20832;SDS011;56075;51.264;7.150;2022-12-29T08:24:54;6.10;;;0.68;;
20832;SDS011;56075;51.264;7.150;2022-12-29T08:27:25;3.67;;;0.70;;
20832;SDS011;56075;51.264;7.150;2022-12-29T08:29:57;4.40;;;0.73;;
20832;SDS011;56075;51.264;7.150;2022-12-29T08:32:28;3.03;;;0.90;;
20832;SDS011;56075;51.264;7.150;2022-12-29T08:34:59;4.57;;;0.60;;
20832;SDS011;56075;51.264;7.150;2022-12-29T08:37:31;3.33;;;0.52;;
20832;SDS011;56075;51.264;7.150;2022-12-29T08:40:03;2.97;;;0.43;;
20832;SDS011;56075;51.264;7.150;2022-12-29T08:42:36;3.97;;;0.60;;
20832;SDS011;56075;51.264;7.150;2022-12-29T08:45:07;2.72;;;0.57;;
20832;SDS011;56075;51.264;7.150;2022-12-29T08:47:39;1.80;;;0.60;;
20832;SDS011;56075;51.264;7.150;2022-12-29T08:50:13;3.10;;;0.60;;
20832;SDS011;56075;51.264;7.150;2022-12-29T08:52:45;3.42;;;0.80;;
20832;SDS011;56075;51.264;7.150;2022-12-29T08:55:16;4.18;;;0.70;;
20832;SDS011;56075;51.264;7.150;2022-12-29T08:57:47;2.38;;;0.60;;
20832;SDS011;56075;51.264;7.150;2022-12-29T09:00:22;5.45;;;0.80;;
20832;SDS011;56075;51.264;7.150;2022-12-29T09:02:54;3.15;;;0.85;;
20832;SDS011;56075;51.264;7.150;2022-12-29T09:08:13;6.32;;;0.75;;
20832;SDS011;56075;51.264;7.150;2022-12-29T09:10:44;4.05;;;1.00;;
20832;SDS011;56075;51.264;7.150;2022-12-29T09:13:16;4.82;;;0.80;;
20832;SDS011;56075;51.264;7.150;2022-12-29T09:15:47;5.10;;;0.90;;
20832;SDS011;56075;51.264;7.150;2022-12-29T09:18:18;9.23;;;0.95;;
20832;SDS011;56075;51.264;7.150;2022-12-29T09:20:49;2.65;;;0.85;;
20832;SDS011;56075;51.264;7.150;2022-12-29T09:23:27;2.70;;;0.80;;
20832;SDS011;56075;51.264;7.150;2022-12-29T09:25:58;5.88;;;0.70;;
20832;SDS011;56075;51.264;7.150;2022-12-29T09:28:30;2.72;;;0.68;;
20832;SDS011;56075;51.264;7.150;2022-12-29T09:31:01;5.45;;;0.65;;
20832;SDS011;56075;51.264;7.150;2022-12-29T09:33:34;4.40;;;1.00;;
20832;SDS011;56075;51.264;7.150;2022-12-29T09:36:05;4.38;;;0.80;;
20832;SDS011;56075;51.264;7.150;2022-12-29T09:38:36;3.33;;;0.90;;
20832;SDS011;56075;51.264;7.150;2022-12-29T09:41:13;7.47;;;0.68;;
20832;SDS011;56075;51.264;7.150;2022-12-29T09:43:56;5.35;;;0.82;;
20832;SDS011;56075;51.264;7.150;2022-12-29T09:46:50;4.75;;;0.90;;
20832;SDS011;56075;51.264;7.150;2022-12-29T09:49:43;3.47;;;0.47;;
20832;SDS011;56075;51.264;7.150;2022-12-29T09:52:38;4.72;;;0.70;;
20832;SDS011;56075;51.264;7.150;2022-12-29T09:55:19;3.50;;;0.70;;
20832;SDS011;56075;51.264;7.150;2022-12-29T09:58:09;5.18;;;0.75;;
20832;SDS011;56075;51.264;7.150;2022-12-29T10:00:48;5.32;;;0.82;;
20832;SDS011;56075;51.264;7.150;2022-12-29T10:06:32;4.30;;;0.80;;
20832;SDS011;56075;51.264;7.150;2022-12-29T10:12:29;4.47;;;0.85;;
20832;SDS011;56075;51.264;7.150;2022-12-29T10:23:49;4.15;;;0.80;;
20832;SDS011;56075;51.264;7.150;2022-12-29T10:26:28;6.20;;;0.90;;
20832;SDS011;56075;51.264;7.150;2022-12-29T10:29:04;3.88;;;0.70;;
20832;SDS011;56075;51.264;7.150;2022-12-29T10:31:41;7.43;;;0.82;;
20832;SDS011;56075;51.264;7.150;2022-12-29T10:36:58;6.20;;;0.73;;
20832;SDS011;56075;51.264;7.150;2022-12-29T10:39:56;5.43;;;0.70;;
20832;SDS011;56075;51.264;7.150;2022-12-29T10:42:28;4.63;;;0.60;;
20832;SDS011;56075;51.264;7.150;2022-12-29T10:45:05;7.70;;;0.90;;
20832;SDS011;56075;51.264;7.150;2022-12-29T10:47:38;6.75;;;1.08;;
20832;SDS011;56075;51.264;7.150;2022-12-29T10:50:22;4.30;;;0.70;;
20832;SDS011;56075;51.264;7.150;2022-12-29T10:52:55;4.75;;;1.13;;
20832;SDS011;56075;51.264;7.150;2022-12-29T10:55:32;5.00;;;0.90;;
20832;SDS011;56075;51.264;7.150;2022-12-29T10:58:06;6.43;;;1.00;;
20832;SDS011;56075;51.264;7.150;2022-12-29T11:00:42;6.47;;;1.10;;
20832;SDS011;56075;51.264;7.150;2022-12-29T11:03:26;8.20;;;1.08;;
20832;SDS011;56075;51.264;7.150;2022-12-29T11:06:13;6.10;;;0.98;;
20832;SDS011;56075;51.264;7.150;2022-12-29T11:09:21;3.60;;;0.77;;
20832;SDS011;56075;51.264;7.150;2022-12-29T11:11:45;3.20;;;0.60;;
20832;SDS011;56075;51.264;7.150;2022-12-29T11:14:18;4.07;;;0.93;;
20832;SDS011;56075;51.264;7.150;2022-12-29T11:17:04;3.08;;;0.70;;
20832;SDS011;56075;51.264;7.150;2022-12-29T11:19:35;3.35;;;0.80;;
20832;SDS011;56075;51.264;7.150;2022-12-29T11:22:17;3.78;;;0.80;;
20832;SDS011;56075;51.264;7.150;2022-12-29T11:24:53;8.18;;;1.05;;
20832;SDS011;56075;51.264;7.150;2022-12-29T11:27:35;6.28;;;0.77;;
20832;SDS011;56075;51.264;7.150;2022-12-29T11:30:21;6.22;;;0.82;;
20832;SDS011;56075;51.264;7.150;2022-12-29T11:32:58;6.20;;;0.98;;
20832;SDS011;56075;51.264;7.150;2022-12-29T11:35:40;9.40;;;1.00;;
20832;SDS011;56075;51.264;7.150;2022-12-29T11:38:23;3.75;;;1.10;;
20832;SDS011;56075;51.264;7.150;2022-12-29T11:40:58;6.82;;;0.75;;
20832;SDS011;56075;51.264;7.150;2022-12-29T11:43:31;3.90;;;0.80;;
20832;SDS011;56075;51.264;7.150;2022-12-29T11:46:27;7.13;;;1.98;;
20832;SDS011;56075;51.264;7.150;2022-12-29T11:49:04;6.47;;;1.27;;
20832;SDS011;56075;51.264;7.150;2022-12-29T11:54:34;7.82;;;1.48;;
20832;SDS011;56075;51.264;7.150;2022-12-29T11:57:12;4.40;;;0.80;;
20832;SDS011;56075;51.264;7.150;2022-12-29T11:59:55;4.97;;;0.80;;
20832;SDS011;56075;51.264;7.150;2022-12-29T12:08:17;7.53;;;0.70;;
20832;SDS011;56075;51.264;7.150;2022-12-29T12:11:19;4.22;;;1.00;;
20832;SDS011;56075;51.264;7.150;2022-12-29T12:13:58;4.70;;;0.95;;
20832;SDS011;56075;51.264;7.150;2022-12-29T12:16:39;6.38;;;1.17;;
20832;SDS011;56075;51.264;7.150;2022-12-29T12:22:14;7.00;;;0.90;;
20832;SDS011;56075;51.264;7.150;2022-12-29T12:24:56;7.05;;;1.00;;
20832;SDS011;56075;51.264;7.150;2022-12-29T12:27:39;7.40;;;1.08;;
20832;SDS011;56075;51.264;7.150;2022-12-29T12:30:49;7.57;;;0.85;;
20832;SDS011;56075;51.264;7.150;2022-12-29T12:33:25;5.65;;;0.80;;
20832;SDS011;56075;51.264;7.150;2022-12-29T12:36:16;9.70;;;1.27;;
20832;SDS011;56075;51.264;7.150;2022-12-29T12:39:38;3.35;;;0.77;;
20832;SDS011;56075;51.264;7.150;2022-12-29T12:44:58;2.33;;;0.65;;
20832;SDS011;56075;51.264;7.150;2022-12-29T12:48:19;6.15;;;0.82;;
20832;SDS011;56075;51.264;7.150;2022-12-29T12:54:02;5.70;;;0.70;;
20832;SDS011;56075;51.264;7.150;2022-12-29T12:56:45;6.05;;;0.70;;
20832;SDS011;56075;51.264;7.150;2022-12-29T13:03:05;6.50;;;0.95;;
20832;SDS011;56075;51.264;7.150;2022-12-29T13:05:57;5.05;;;0.77;;
20832;SDS011;56075;51.264;7.150;2022-12-29T13:16:50;4.90;;;1.00;;
20832;SDS011;56075;51.264;7.150;2022-12-29T13:19:46;7.43;;;1.05;;
20832;SDS011;56075;51.264;7.150;2022-12-29T13:22:39;6.47;;;0.77;;
20832;SDS011;56075;51.264;7.150;2022-12-29T13:30:34;6.65;;;0.93;;
20832;SDS011;56075;51.264;7.150;2022-12-29T13:41:35;4.65;;;1.10;;
20832;SDS011;56075;51.264;7.150;2022-12-29T13:44:40;10.13;;;1.75;;
20832;SDS011;56075;51.264;7.150;2022-12-29T13:50:00;5.13;;;1.20;;
20832;SDS011;56075;51.264;7.150;2022-12-29T13:52:42;7.78;;;1.00;;
20832;SDS011;56075;51.264;7.150;2022-12-29T13:55:44;4.68;;;0.85;;
20832;SDS011;56075;51.264;7.150;2022-12-29T14:01:27;7.22;;;1.05;;
20832;SDS011;56075;51.264;7.150;2022-12-29T14:04:03;8.93;;;0.90;;
20832;SDS011;56075;51.264;7.150;2022-12-29T14:07:00;3.67;;;0.90;;
20832;SDS011;56075;51.264;7.150;2022-12-29T14:09:41;4.70;;;0.77;;
20832;SDS011;56075;51.264;7.150;2022-12-29T14:18:03;4.30;;;0.80;;
20832;SDS011;56075;51.264;7.150;2022-12-29T14:20:52;6.45;;;0.57;;
20832;SDS011;56075;51.264;7.150;2022-12-29T14:26:17;4.28;;;0.80;;
20832;SDS011;56075;51.264;7.150;2022-12-29T14:31:54;5.05;;;0.80;;
20832;SDS011;56075;51.264;7.150;2022-12-29T14:34:30;3.92;;;0.90;;
20832;SDS011;56075;51.264;7.150;2022-12-29T14:37:22;7.18;;;0.82;;
20832;SDS011;56075;51.264;7.150;2022-12-29T14:40:36;5.28;;;0.75;;
20832;SDS011;56075;51.264;7.150;2022-12-29T14:42:54;2.05;;;0.80;;
20832;SDS011;56075;51.264;7.150;2022-12-29T14:45:28;4.03;;;0.70;;
20832;SDS011;56075;51.264;7.150;2022-12-29T14:48:00;2.15;;;0.60;;
20832;SDS011;56075;51.264;7.150;2022-12-29T14:53:06;2.47;;;0.60;;
20832;SDS011;56075;51.264;7.150;2022-12-29T14:56:13;4.15;;;0.80;;
20832;SDS011;56075;51.264;7.150;2022-12-29T14:58:50;3.95;;;0.70;;
20832;SDS011;56075;51.264;7.150;2022-12-29T15:01:38;4.38;;;0.85;;
20832;SDS011;56075;51.264;7.150;2022-12-29T15:04:20;4.28;;;0.70;;
20832;SDS011;56075;51.264;7.150;2022-12-29T15:06:54;4.25;;;0.60;;
20832;SDS011;56075;51.264;7.150;2022-12-29T15:17:27;8.35;;;0.90;;
20832;SDS011;56075;51.264;7.150;2022-12-29T15:20:03;6.20;;;0.70;;
20832;SDS011;56075;51.264;7.150;2022-12-29T15:22:48;5.88;;;0.90;;
20832;SDS011;56075;51.264;7.150;2022-12-29T15:25:24;7.18;;;1.60;;
20832;SDS011;56075;51.264;7.150;2022-12-29T15:27:58;3.63;;;1.10;;
20832;SDS011;56075;51.264;7.150;2022-12-29T15:30:32;7.00;;;1.17;;
20832;SDS011;56075;51.264;7.150;2022-12-29T15:33:10;3.10;;;0.80;;
20832;SDS011;56075;51.264;7.150;2022-12-29T15:35:50;3.70;;;0.85;;
20832;SDS011;56075;51.264;7.150;2022-12-29T15:38:26;3.03;;;0.90;;
20832;SDS011;56075;51.264;7.150;2022-12-29T15:41:22;5.00;;;0.70;;
20832;SDS011;56075;51.264;7.150;2022-12-29T15:46:32;2.63;;;0.80;;
20832;SDS011;56075;51.264;7.150;2022-12-29T15:49:11;7.97;;;1.20;;
20832;SDS011;56075;51.264;7.150;2022-12-29T15:51:44;4.78;;;1.13;;
20832;SDS011;56075;51.264;7.150;2022-12-29T15:54:16;4.80;;;0.90;;
20832;SDS011;56075;51.264;7.150;2022-12-29T15:56:51;3.03;;;0.70;;
20832;SDS011;56075;51.264;7.150;2022-12-29T15:59:23;6.30;;;0.77;;
20832;SDS011;56075;51.264;7.150;2022-12-29T16:01:55;7.18;;;2.53;;
20832;SDS011;56075;51.264;7.150;2022-12-29T16:04:27;7.13;;;1.23;;
20832;SDS011;56075;51.264;7.150;2022-12-29T16:07:01;7.03;;;1.15;;
20832;SDS011;56075;51.264;7.150;2022-12-29T16:09:35;2.92;;;0.75;;
20832;SDS011;56075;51.264;7.150;2022-12-29T16:14:55;7.07;;;1.65;;
20832;SDS011;56075;51.264;7.150;2022-12-29T16:17:33;5.40;;;0.88;;
20832;SDS011;56075;51.264;7.150;2022-12-29T16:20:22;5.90;;;1.35;;
20832;SDS011;56075;51.264;7.150;2022-12-29T16:22:59;4.93;;;0.98;;
20832;SDS011;56075;51.264;7.150;2022-12-29T16:25:31;5.82;;;0.90;;
20832;SDS011;56075;51.264;7.150;2022-12-29T16:28:20;4.07;;;1.30;;
20832;SDS011;56075;51.264;7.150;2022-12-29T16:30:57;6.03;;;0.98;;
20832;SDS011;56075;51.264;7.150;2022-12-29T16:33:36;4.43;;;1.15;;
20832;SDS011;56075;51.264;7.150;2022-12-29T16:36:23;6.97;;;1.00;;
20832;SDS011;56075;51.264;7.150;2022-12-29T16:42:54;3.83;;;1.05;;
20832;SDS011;56075;51.264;7.150;2022-12-29T16:50:37;8.65;;;1.05;;
20832;SDS011;56075;51.264;7.150;2022-12-29T16:53:20;9.18;;;1.73;;
20832;SDS011;56075;51.264;7.150;2022-12-29T16:55:57;5.60;;;1.00;;
20832;SDS011;56075;51.264;7.150;2022-12-29T16:58:38;7.20;;;1.15;;
20832;SDS011;56075;51.264;7.150;2022-12-29T17:01:09;9.68;;;1.33;;
20832;SDS011;56075;51.264;7.150;2022-12-29T17:03:46;10.07;;;1.30;;
20832;SDS011;56075;51.264;7.150;2022-12-29T17:06:22;6.88;;;1.00;;
20832;SDS011;56075;51.264;7.150;2022-12-29T17:08:53;8.07;;;1.10;;
20832;SDS011;56075;51.264;7.150;2022-12-29T17:11:28;11.52;;;1.20;;
20832;SDS011;56075;51.264;7.150;2022-12-29T17:14:36;6.57;;;1.27;;
20832;SDS011;56075;51.264;7.150;2022-12-29T17:17:17;7.95;;;1.33;;
20832;SDS011;56075;51.264;7.150;2022-12-29T17:19:52;5.88;;;1.40;;
20832;SDS011;56075;51.264;7.150;2022-12-29T17:22:27;6.82;;;1.50;;
20832;SDS011;56075;51.264;7.150;2022-12-29T17:24:59;10.73;;;1.80;;
20832;SDS011;56075;51.264;7.150;2022-12-29T17:27:36;10.57;;;2.22;;
20832;SDS011;56075;51.264;7.150;2022-12-29T17:30:12;10.90;;;1.48;;
20832;SDS011;56075;51.264;7.150;2022-12-29T17:32:57;10.45;;;1.75;;
20832;SDS011;56075;51.264;7.150;2022-12-29T17:35:32;10.80;;;1.90;;
20832;SDS011;56075;51.264;7.150;2022-12-29T17:38:09;10.68;;;1.80;;
20832;SDS011;56075;51.264;7.150;2022-12-29T17:40:53;7.70;;;1.92;;
20832;SDS011;56075;51.264;7.150;2022-12-29T17:43:25;14.00;;;2.40;;
20832;SDS011;56075;51.264;7.150;2022-12-29T17:45:58;11.13;;;1.97;;
20832;SDS011;56075;51.264;7.150;2022-12-29T17:48:29;16.50;;;2.85;;
20832;SDS011;56075;51.264;7.150;2022-12-29T17:51:01;16.00;;;3.22;;
20832;SDS011;56075;51.264;7.150;2022-12-29T17:53:32;8.97;;;1.93;;
20832;SDS011;56075;51.264;7.150;2022-12-29T17:56:03;7.25;;;1.17;;
20832;SDS011;56075;51.264;7.150;2022-12-29T17:58:34;10.13;;;2.03;;